Latest Weather Observations for South Channel Island

IDV60801

Issued at 12:22 am EST Thursday 15 April 2021 (issued every 10 minutes, with the page automatically refreshed every 10 minutes)

About weather observations | Map of weather stations | Latest weather observations for VIC | Other Formats
Station Details ID: 086344 Name: SOUTH CHANNEL ISLAND Lat: -38.31 Lon: 144.80 Height: 9.0 m
Data from the previous 72 hours. | See also: Recent months at South Channel Island
Date/Time
EST
Temp
°C
App
Temp
°C
Dew
Point
°C
Rel
Hum
%
Delta-T
°C
Wind Press
QNH
hPa
Press
MSL
hPa
Rain since
9am
mm
Dir  Spd
km/h
Gust
km/h
Spd
kts
Gust
kts
15/12:00am - - - - - W 43 50 23 27 - - -
 
Date/Time
EST
Temp
°C
App
Temp
°C
Dew
Point
°C
Rel
Hum
%
Delta-T
°C
Wind Press
QNH
hPa
Press
MSL
hPa
Rain since
9am
mm
Dir  Spd
km/h
Gust
km/h
Spd
kts
Gust
kts
14/11:30pm - - - - - WNW 37 44 20 24 - - -
14/11:00pm - - - - - WNW 41 50 22 27 - - -
14/10:30pm - - - - - WNW 32 37 17 20 - - -
14/10:00pm - - - - - W 39 48 21 26 - - -
14/09:30pm - - - - - WNW 35 41 19 22 - - -
14/09:00pm - - - - - NW 28 33 15 18 - - -
14/08:30pm - - - - - WNW 33 37 18 20 - - -
14/08:00pm - - - - - W 33 37 18 20 - - -
14/07:30pm - - - - - W 43 50 23 27 - - -
14/07:00pm - - - - - WSW 37 48 20 26 - - -
14/06:30pm - - - - - W 41 52 22 28 - - -
14/06:00pm - - - - - W 39 46 21 25 - - -
14/05:57pm - - - - - W 37 46 20 25 - - -
14/05:30pm - - - - - WSW 33 39 18 21 - - -
14/05:00pm - - - - - W 39 46 21 25 - - -
14/04:30pm - - - - - W 37 43 20 23 - - -
14/04:00pm - - - - - W 35 39 19 21 - - -
14/03:30pm - - - - - WSW 32 37 17 20 - - -
14/03:27pm - - - - - WSW 35 44 19 24 - - -
14/03:00pm - - - - - W 37 48 20 26 - - -
14/02:32pm - - - - - W 41 59 22 32 - - -
14/02:30pm - - - - - W 39 50 21 27 - - -
14/02:00pm - - - - - W 43 50 23 27 - - -
14/01:30pm - - - - - WSW 48 57 26 31 - - -
14/01:00pm - - - - - W 48 56 26 30 - - -
14/12:30pm - - - - - W 48 56 26 30 - - -
14/12:00pm - - - - - W 46 54 25 29 - - -
14/11:30am - - - - - W 54 63 29 34 - - -
14/11:12am - - - - - WNW 46 65 25 35 - - -
14/11:00am - - - - - W 46 52 25 28 - - -
14/10:30am - - - - - WNW 56 63 30 34 - - -
14/10:00am - - - - - WNW 52 63 28 34 - - -
14/09:30am - - - - - WNW 50 59 27 32 - - -
14/09:00am - - - - - WNW 46 57 25 31 - - -
14/08:30am - - - - - WNW 46 52 25 28 - - -
14/08:00am - - - - - WNW 43 52 23 28 - - -
14/07:30am - - - - - NW 39 46 21 25 - - -
14/07:00am - - - - - NW 43 50 23 27 - - -
14/06:30am - - - - - WNW 39 48 21 26 - - -
14/06:00am - - - - - W 48 59 26 32 - - -
14/05:30am - - - - - W 50 61 27 33 - - -
14/05:00am - - - - - W 54 59 29 32 - - -
14/04:46am - - - - - WNW 39 61 21 33 - - -
14/04:44am - - - - - WNW 32 59 17 32 - - -
14/04:30am - - - - - NNW 24 26 13 14 - - -
14/04:00am - - - - - N 30 37 16 20 - - -
14/03:30am - - - - - NNW 32 37 17 20 - - -
14/03:29am - - - - - NNW 32 37 17 20 - - -
14/03:00am - - - - - NW 41 54 22 29 - - -
14/02:55am - - - - - NW 44 57 24 31 - - -
14/02:30am - - - - - NNW 59 85 32 46 - - -
14/02:20am - - - - - NNW 56 93 30 50 - - -
14/02:13am - - - - - NNW 59 87 32 47 - - -
14/02:12am - - - - - NNW 61 87 33 47 - - -
14/02:00am - - - - - N 54 76 29 41 - - -
14/01:34am - - - - - NNW 56 76 30 41 - - -
14/01:30am - - - - - NNW 56 69 30 37 - - -
14/01:24am - - - - - NNW 50 69 27 37 - - -
14/01:14am - - - - - NNW 37 63 20 34 - - -
14/01:00am - - - - - NNW 32 39 17 21 - - -
14/12:30am - - - - - N 43 52 23 28 - - -
14/12:00am - - - - - N 44 52 24 28 - - -
 
Date/Time
EST
Temp
°C
App
Temp
°C
Dew
Point
°C
Rel
Hum
%
Delta-T
°C
Wind Press
QNH
hPa
Press
MSL
hPa
Rain since
9am
mm
Dir  Spd
km/h
Gust
km/h
Spd
kts
Gust
kts
13/11:30pm - - - - - N 37 46 20 25 - - -
13/11:00pm - - - - - N 39 48 21 26 - - -
13/10:30pm - - - - - N 39 48 21 26 - - -
13/10:00pm - - - - - N 41 50 22 27 - - -
13/09:39pm - - - - - N 54 93 29 50 - - -
13/09:38pm - - - - - N 50 70 27 38 - - -
13/09:30pm - - - - - N 46 54 25 29 - - -
13/09:00pm - - - - - N 56 70 30 38 - - -
13/08:30pm - - - - - N 52 59 28 32 - - -
13/08:00pm - - - - - N 50 59 27 32 - - -
13/07:30pm - - - - - N 52 65 28 35 - - -
13/07:00pm - - - - - N 57 70 31 38 - - -
13/06:30pm - - - - - N 56 69 30 37 - - -
13/06:00pm - - - - - N 54 63 29 34 - - -
13/05:30pm - - - - - N 56 63 30 34 - - -
13/05:00pm - - - - - N 50 56 27 30 - - -
13/04:30pm - - - - - N 46 56 25 30 - - -
13/04:00pm - - - - - N 50 59 27 32 - - -
13/03:30pm - - - - - N 50 59 27 32 - - -
13/03:00pm - - - - - N 56 63 30 34 - - -
13/02:30pm - - - - - N 52 61 28 33 - - -
13/02:00pm - - - - - N 54 63 29 34 - - -
13/01:30pm - - - - - N 48 57 26 31 - - -
13/01:00pm - - - - - N 52 59 28 32 - - -
13/12:30pm - - - - - N 52 59 28 32 - - -
13/12:00pm - - - - - N 50 57 27 31 - - -
13/11:30am - - - - - N 50 57 27 31 - - -
13/11:00am - - - - - N 48 54 26 29 - - -
13/10:30am - - - - - N 48 56 26 30 - - -
13/10:00am - - - - - N 50 54 27 29 - - -
13/09:30am - - - - - N 48 56 26 30 - - -
13/09:00am - - - - - N 46 54 25 29 - - -
13/08:30am - - - - - N 37 44 20 24 - - -
13/08:00am - - - - - NNE 32 39 17 21 - - -
13/07:30am - - - - - NNE 32 37 17 20 - - -
13/07:00am - - - - - NNE 30 33 16 18 - - -
13/06:30am - - - - - NNE 28 32 15 17 - - -
13/06:00am - - - - - NNE 26 30 14 16 - - -
13/05:30am - - - - - NNE 24 28 13 15 - - -
13/05:00am - - - - - NNE 26 28 14 15 - - -
13/04:30am - - - - - NNE 26 28 14 15 - - -
13/04:00am - - - - - NNE 24 26 13 14 - - -
13/03:30am - - - - - N 22 26 12 14 - - -
13/03:00am - - - - - NNE 22 28 12 15 - - -
13/02:30am - - - - - NNE 20 24 11 13 - - -
13/02:00am - - - - - NNE 19 22 10 12 - - -
13/01:30am - - - - - NE 20 24 11 13 - - -
13/01:00am - - - - - NNE 17 22 9 12 - - -
13/12:30am - - - - - NE 17 20 9 11 - - -
13/12:00am - - - - - NE 17 22 9 12 - - -
 
Date/Time
EST
Temp
°C
App
Temp
°C
Dew
Point
°C
Rel
Hum
%
Delta-T
°C
Wind Press
QNH
hPa
Press
MSL
hPa
Rain since
9am
mm
Dir  Spd
km/h
Gust
km/h
Spd
kts
Gust
kts
12/11:30pm - - - - - ENE 15 19 8 10 - - -
12/11:00pm - - - - - E 9 13 5 7 - - -
12/10:30pm - - - - - E 9 13 5 7 - - -
12/10:00pm - - - - - E 11 13 6 7 - - -
12/09:30pm - - - - - ESE 9 11 5 6 - - -
12/09:00pm - - - - - SE 9 11 5 6 - - -
12/08:30pm - - - - - SE 9 11 5 6 - - -
12/08:00pm - - - - - SSE 11 13 6 7 - - -
12/07:30pm - - - - - S 13 17 7 9 - - -
12/07:00pm - - - - - SSE 15 17 8 9 - - -
12/06:30pm - - - - - S 15 19 8 10 - - -
12/06:00pm - - - - - SSW 13 17 7 9 - - -
12/05:30pm - - - - - SSW 15 17 8 9 - - -
12/05:00pm - - - - - SSW 13 17 7 9 - - -
12/04:30pm - - - - - SSW 13 15 7 8 - - -
12/04:00pm - - - - - SSW 13 15 7 8 - - -
12/03:30pm - - - - - SW 17 20 9 11 - - -
12/03:00pm - - - - - SW 17 20 9 11 - - -
12/02:30pm - - - - - SW 19 22 10 12 - - -
12/02:00pm - - - - - SW 17 24 9 13 - - -
12/01:30pm - - - - - SSW 17 26 9 14 - - -
12/01:00pm - - - - - SSW 20 26 11 14 - - -
12/12:30pm - - - - - S 20 28 11 15 - - -
12/12:00pm - - - - - SW 20 26 11 14 - - -
12/11:30am - - - - - SSW 22 28 12 15 - - -
12/11:00am - - - - - SSW 22 30 12 16 - - -
12/10:30am - - - - - SSW 26 32 14 17 - - -
12/10:00am - - - - - SSW 28 35 15 19 - - -
12/09:30am - - - - - SSW 30 35 16 19 - - -
12/09:00am - - - - - S 30 35 16 19 - - -
12/08:30am - - - - - S 32 35 17 19 - - -
12/08:00am - - - - - SSW 32 35 17 19 - - -
12/07:30am - - - - - S 26 32 14 17 - - -
12/07:00am - - - - - S 28 33 15 18 - - -
12/06:35am - - - - - S 35 46 19 25 - - -
12/06:30am - - - - - SSW 37 46 20 25 - - -
12/06:00am - - - - - SSW 37 44 20 24 - - -
12/05:30am - - - - - SSW 39 46 21 25 - - -
12/05:00am - - - - - SSW 39 44 21 24 - - -
12/04:30am - - - - - SSW 41 50 22 27 - - -
12/04:00am - - - - - SSW 41 50 22 27 - - -
12/03:30am - - - - - SSW 41 50 22 27 - - -
12/03:00am - - - - - SSW 39 48 21 26 - - -
12/02:30am - - - - - SSW 44 59 24 32 - - -
12/02:00am - - - - - SSW 41 48 22 26 - - -
12/01:30am - - - - - SSW 43 57 23 31 - - -
12/01:00am - - - - - SSW 44 52 24 28 - - -
12/12:30am - - - - - SSW 41 50 22 27 - - -

Other formats

Comma delimited format used in spreadsheet applications
http://www.bom.gov.au/fwo/IDV60801/IDV60801.94853.axf

JavaScript Object Notation format (JSON) in row-major order
http://www.bom.gov.au/fwo/IDV60801/IDV60801.94853.json

Data quality

Most of these data are generated automatically and are frequently updated. Quality checks on data are not normally performed. It is possible for incorrect values to appear. Refer to information at About Latest Weather Observations and please check the disclaimer before using these data.